Stations météo

Publicité
Le Puy, France (7471): Température de l'air & dewpoint: 19.11.2020 23:00:00 - 25.11.2020 23:00:00 (CET)Le Puy, France (7471): Température de l'air 5cm: 19.11.2020 23:00:00 - 25.11.2020 23:00:00 (CET)Le Puy, France (7471): Température de l'air -20cm & Température de l'air -100cm: 19.11.2020 23:00:00 - 25.11.2020 23:00:00 (CET)Le Puy, France (7471): Vitesse du vent & gusts: 19.11.2020 23:00:00 - 25.11.2020 23:00:00 (CET)Le Puy, France (7471): Direction du vent: 19.11.2020 23:00:00 - 25.11.2020 23:00:00 (CET)Le Puy, France (7471): visibility: 19.11.2020 23:00:00 - 25.11.2020 23:00:00 (CET)Le Puy, France (7471): Ensoleillement: 19.11.2020 23:00:00 - 25.11.2020 23:00:00 (CET)Le Puy, France (7471): Quantités de précipitations: 19.11.2020 23:00:00 - 25.11.2020 23:00:00 (CET)
Date & Time tt [°C] td [°C] tt 5cm [°C] tt -20cm [°C] tt -100cm [°C] ff [km/h] ff [knt] fx [km/h] fx [knt] dd vv [km] sd [min] rr [mm]
25.11.2020 23:00:00 - - - - - - - - - - - - -
25.11.2020 22:00:00 6,9 3,7 6,2 5,9 11,3 9 5 27 15 SSE 20 0 0,0
25.11.2020 21:00:00 6,9 3,5 6,5 5,9 11,3 14 8 26 14 SSE 20 0 0,0
25.11.2020 20:00:00 6,9 3,5 6,7 5,7 11,2 14 8 29 16 SSE 20 0 0,0
25.11.2020 19:00:00 6,8 3,8 6,6 5,8 11,3 16 9 28 15 SSE 20 0 0,0
25.11.2020 18:00:00 6,8 3,6 6,6 5,7 11,3 11 6 32 17 SSE 20 0 0,0
25.11.2020 17:00:00 6,8 3,2 6,7 5,6 11,3 15 8 35 19 SSE 20 1 0,0
25.11.2020 16:00:00 7,4 3,4 8,0 5,5 11,3 15 8 36 19 SSE 20 8 0,0
25.11.2020 15:00:00 8,5 3,7 9,7 5,5 11,3 19 10 47 26 SSE 20 46 0,0
25.11.2020 14:00:00 8,0 3,8 9,0 5,4 11,3 18 10 50 27 SSE 20 19 0,0
25.11.2020 13:00:00 7,8 4,2 8,8 5,4 11,3 23 12 44 24 SSE 20 12 0,0
25.11.2020 12:00:00 7,9 4,7 7,9 5,4 11,2 23 12 42 23 SSE 20 25 0,0
25.11.2020 11:00:00 7,2 4,8 7,4 5,4 11,4 19 10 33 18 SSE 19 5 0,0
25.11.2020 10:00:00 6,9 4,4 5,6 5,4 11,4 14 7 29 15 SSE 20 17 0,0
25.11.2020 09:00:00 6,0 3,5 4,3 5,3 11,4 10 5 28 15 SSE 20 20 0,0
25.11.2020 08:00:00 5,1 2,8 2,0 5,3 11,4 12 7 23 12 ESE 20 0 0,0
25.11.2020 07:00:00 4,6 2,1 2,5 5,4 11,4 6 3 24 13 SSE 20 0 0,0
25.11.2020 06:00:00 6,0 2,6 4,7 5,4 11,4 14 7 31 17 SE 20 0 0,0
25.11.2020 05:00:00 6,8 3,4 4,8 5,4 11,4 17 9 37 20 SSE 20 0 0,0
25.11.2020 04:00:00 5,9 2,4 3,2 5,4 11,4 14 8 25 13 SSE 20 0 0,0
25.11.2020 03:00:00 5,7 2,0 4,1 5,4 11,4 9 5 37 20 SSE 20 0 0,0
25.11.2020 02:00:00 6,4 3,0 0,0 5,4 11,4 13 7 29 16 S 20 0 0,0
25.11.2020 01:00:00 1,9 0,0 -0,1 5,5 11,4 7 4 26 14 SSW 20 0 0,0
25.11.2020 00:00:00 4,3 2,2 0,2 5,5 11,4 12 6 26 14 S 20 0 0,0
24.11.2020 23:00:00 4,7 2,1 -1,7 5,5 11,4 10 6 34 19 S 20 0 0,0
24.11.2020 22:00:00 0,4 -1,2 -2,4 5,5 11,4 4 2 10 5 SSW 17 0 0,0
24.11.2020 21:00:00 0,2 -1,2 -2,3 5,5 11,5 3 2 8 5 SW 19 0 0,0
24.11.2020 20:00:00 0,1 -2,1 -2,5 5,4 11,5 3 1 9 5 W 20 0 0,0
24.11.2020 19:00:00 1,6 -1,3 -2,0 5,3 11,4 4 2 11 6 SE 20 0 0,0
24.11.2020 18:00:00 4,2 -0,8 1,4 5,3 11,5 3 2 19 11 SW 20 0 0,0
24.11.2020 17:00:00 7,4 -0,1 5,3 5,2 11,5 11 6 29 15 SE 20 33 0,0
24.11.2020 16:00:00 10,5 0,5 12,5 5,1 11,5 16 9 25 14 SSE 20 60 0,0
24.11.2020 15:00:00 11,2 0,9 14,2 5,1 11,5 9 5 14 8 ESE 20 60 0,0
24.11.2020 14:00:00 10,9 1,4 16,6 5,1 11,5 5 3 8 5 ENE 20 60 0,0
24.11.2020 13:00:00 9,4 1,5 15,1 5,1 11,5 3 2 7 4 NNE 20 60 0,0
24.11.2020 12:00:00 6,9 1,4 13,6 5,2 11,5 4 2 8 4 ENE 20 60 0,0
24.11.2020 11:00:00 4,5 1,0 8,4 5,2 11,5 2 1 9 5 NNW 20 60 0,0
24.11.2020 10:00:00 1,4 -0,5 4,6 5,2 11,5 3 1 5 3 NE 20 60 0,0
24.11.2020 09:00:00 -1,4 -3,1 -5,3 5,2 11,5 0 0 6 4 N 20 40 0,0
24.11.2020 08:00:00 -4,2 -5,5 -5,6 5,4 11,5 4 2 8 4 SW 16 0 0,0
24.11.2020 07:00:00 -3,8 -4,8 -6,2 5,4 11,5 6 3 8 5 SW 20 0 0,0
24.11.2020 06:00:00 -3,8 -5,1 -5,3 5,5 11,5 5 3 8 4 WSW 20 0 0,0
24.11.2020 05:00:00 -3,4 -4,5 -5,2 5,5 11,6 6 3 8 5 SW 20 0 0,0
24.11.2020 04:00:00 -3,3 -4,9 -4,8 5,5 11,6 4 2 7 4 W 20 0 0,0
24.11.2020 03:00:00 -3,0 -4,3 -4,9 5,6 11,6 5 3 7 4 SW 20 0 0,0
24.11.2020 02:00:00 -2,1 -3,8 -3,7 5,6 11,6 3 2 9 5 WSW 20 0 0,0
24.11.2020 01:00:00 -1,7 -3,7 -3,9 5,6 11,6 6 4 10 5 SW 20 0 0,0
24.11.2020 00:00:00 -1,6 -3,6 -3,8 5,7 11,6 4 2 9 5 SW 20 0 0,0
23.11.2020 23:00:00 -1,6 -4,3 -4,2 5,7 11,6 2 1 8 4 SSW 20 0 0,0
23.11.2020 22:00:00 -0,6 -3,3 -3,2 5,7 11,6 4 2 9 5 WSW 20 0 0,0
23.11.2020 21:00:00 -0,4 -3,1 -1,6 5,7 11,6 7 4 10 5 WSW 20 0 0,0
23.11.2020 20:00:00 0,8 -2,4 -1,8 5,6 11,6 8 4 13 7 SW 20 0 0,0
23.11.2020 19:00:00 1,1 -2,3 -0,9 5,6 11,6 3 2 12 6 W 20 0 0,0
23.11.2020 18:00:00 2,1 -2,4 0,4 5,5 11,7 9 5 11 6 SW 20 0 0,0
23.11.2020 17:00:00 7,9 -4,2 4,7 5,4 11,7 2 1 8 5 NW 20 43 0,0
23.11.2020 16:00:00 10,0 -4,0 12,3 5,4 11,6 5 3 11 6 E 20 60 0,0
23.11.2020 15:00:00 11,1 -7,2 15,3 5,4 11,6 5 3 13 7 ESE 20 60 0,0
23.11.2020 14:00:00 10,8 -9,5 15,2 5,4 11,6 6 3 12 6 ESE 20 60 0,0
23.11.2020 13:00:00 11,0 -13,9 15,2 5,4 11,6 4 2 11 6 SSE 20 60 0,0
23.11.2020 12:00:00 8,1 -5,4 11,8 5,4 11,6 4 2 8 5 ESE 20 60 0,0
23.11.2020 11:00:00 5,3 -5,4 9,7 5,5 11,6 2 1 7 4 NNE 20 60 0,0
23.11.2020 10:00:00 2,3 -6,8 5,3 5,6 11,7 4 2 5 3 ESE 20 60 0,0
23.11.2020 09:00:00 -0,3 -5,5 -6,1 5,6 11,7 0 0 8 4 N 20 41 0,0
23.11.2020 08:00:00 -4,0 -8,0 -6,2 5,7 11,7 2 1 8 5 W 20 0 0,0
23.11.2020 07:00:00 -3,8 -7,9 -5,6 5,7 11,6 5 3 8 4 SW 20 0 0,0
23.11.2020 06:00:00 -3,9 -7,9 -5,6 5,8 11,7 4 2 6 3 W 20 0 0,0
23.11.2020 05:00:00 -3,9 -7,7 -5,5 5,8 11,7 4 2 7 4 SW 13 0 0,0
23.11.2020 04:00:00 -3,2 -7,9 -5,6 5,8 11,7 4 2 11 6 WSW 20 0 0,0
23.11.2020 03:00:00 -3,2 -7,4 -5,8 5,9 11,7 4 2 10 5 WNW 14 0 0,0
23.11.2020 02:00:00 -2,6 -7,1 -5,0 5,9 11,7 4 2 8 4 S 20 0 0,0
23.11.2020 01:00:00 -2,2 -7,3 -4,4 5,9 11,7 6 3 9 5 W 9 0 0,0
23.11.2020 00:00:00 -1,6 -7,5 -4,8 6,0 11,7 5 3 10 6 WNW 20 0 0,0
22.11.2020 23:00:00 -0,9 -7,7 -4,2 6,0 11,7 5 3 15 8 NNE 20 0 0,0
22.11.2020 22:00:00 -0,4 -7,7 -3,7 6,0 11,7 3 2 9 5 NW 20 0 0,0
22.11.2020 21:00:00 0,3 -8,4 -3,0 6,0 11,7 4 2 11 6 SSW 20 0 0,0
22.11.2020 20:00:00 0,5 -7,3 -2,2 6,0 11,7 8 4 11 6 SW 20 0 0,0
22.11.2020 19:00:00 1,6 -7,5 -1,0 5,9 11,7 5 3 14 8 WSW 20 0 0,0
22.11.2020 18:00:00 1,8 -6,3 -0,3 5,9 11,8 7 4 12 7 WSW 15 0 0,0
22.11.2020 17:00:00 7,8 -6,7 3,8 5,8 11,8 4 2 9 5 SW 20 44 0,0
22.11.2020 16:00:00 10,9 -11,2 14,3 5,8 11,7 6 3 13 7 SE 20 60 0,0
22.11.2020 15:00:00 11,9 -9,2 16,3 5,8 11,7 5 3 11 6 ESE 20 60 0,0
22.11.2020 14:00:00 11,8 -13,3 15,6 5,8 11,8 3 2 9 5 SE 20 60 0,0
22.11.2020 13:00:00 9,2 -2,7 13,6 5,8 11,8 5 3 10 5 E 20 60 0,0
22.11.2020 12:00:00 7,0 -2,5 12,1 5,9 11,8 3 1 8 4 N 20 60 0,0
22.11.2020 11:00:00 3,9 -3,9 8,3 6,0 11,8 2 1 6 4 ENE 20 60 0,0
22.11.2020 10:00:00 1,4 -5,1 4,3 6,1 11,8 3 2 6 3 E 20 60 0,0
22.11.2020 09:00:00 -2,5 -6,2 -6,3 6,1 11,8 0 0 5 3 N 20 43 0,0
22.11.2020 08:00:00 -5,4 -8,1 -6,9 6,2 11,8 5 3 7 4 SW 20 0 0,0
22.11.2020 07:00:00 -5,2 -7,8 -7,0 6,3 11,8 5 3 7 4 SW 20 0 0,0
22.11.2020 06:00:00 -5,5 -7,8 -7,1 6,3 11,8 4 2 6 4 WSW 20 0 0,0
22.11.2020 05:00:00 -5,2 -7,5 -7,3 6,4 11,8 3 2 7 4 W 20 0 0,0
22.11.2020 04:00:00 -4,8 -7,4 -6,7 6,5 11,8 4 2 9 5 SSW 20 0 0,0
22.11.2020 03:00:00 -4,5 -7,1 -6,3 6,6 11,8 5 3 8 4 SW 20 0 0,0
22.11.2020 02:00:00 -4,3 -6,9 -6,1 6,6 11,8 4 2 6 3 WSW 20 0 0,0
22.11.2020 01:00:00 -4,0 -6,9 -6,9 6,7 11,8 3 1 6 4 W 20 0 0,0
22.11.2020 00:00:00 -3,7 -6,6 -5,8 6,7 11,8 4 2 8 4 WSW 20 0 0,0
21.11.2020 23:00:00 -3,3 -6,3 -5,2 6,8 11,8 5 3 9 5 SW 20 0 0,0
21.11.2020 22:00:00 -2,9 -6,0 -4,8 6,8 11,9 5 3 8 5 SW 20 0 0,0
21.11.2020 21:00:00 -2,2 -5,9 -5,0 6,8 11,8 3 2 10 5 WSW 20 0 0,0
21.11.2020 20:00:00 -2,4 -5,7 -4,1 6,8 11,8 4 2 11 6 SW 20 0 0,0
21.11.2020 19:00:00 -1,4 -5,3 -2,9 6,8 11,9 7 4 10 5 W 20 0 0,0
21.11.2020 18:00:00 -0,3 -5,7 -2,1 6,7 11,8 6 4 9 5 SW 20 0 0,0
21.11.2020 17:00:00 3,8 -5,4 1,4 6,7 11,8 3 2 8 4 SE 20 45 0,0
21.11.2020 16:00:00 6,3 -5,7 10,6 6,7 11,9 3 2 7 4 S 20 60 0,0
21.11.2020 15:00:00 5,7 -5,3 9,4 6,7 11,9 2 1 10 5 ENE 20 60 0,0
21.11.2020 14:00:00 5,6 -4,6 10,4 6,7 11,9 3 2 14 7 S 20 60 0,0
21.11.2020 13:00:00 4,1 -4,4 8,0 6,8 11,9 3 2 15 8 E 20 60 0,0
21.11.2020 12:00:00 3,6 -4,9 7,5 6,9 11,9 4 2 14 8 ESE 20 60 0,0
21.11.2020 11:00:00 2,1 -3,6 9,8 7,0 11,8 5 3 11 6 NE 20 60 0,0
21.11.2020 10:00:00 -0,6 -3,0 0,1 7,1 11,9 2 1 9 5 NNE 20 60 0,0
21.11.2020 09:00:00 -3,1 -5,3 -6,7 7,2 11,9 3 2 10 5 W 20 44 0,0
21.11.2020 08:00:00 -5,9 -7,4 -8,6 7,2 11,9 5 3 10 5 WSW 20 0 0,0
21.11.2020 07:00:00 -5,3 -7,1 -7,0 7,4 11,9 6 3 10 5 SW 20 0 0,0
21.11.2020 06:00:00 -4,5 -6,0 -7,9 7,4 11,9 6 3 11 6 W 20 0 0,0
21.11.2020 05:00:00 -4,1 -5,5 -7,0 7,5 11,9 3 2 12 6 WNW 20 0 0,0
21.11.2020 04:00:00 -3,9 -5,3 -7,3 7,6 11,9 3 1 9 5 SW 20 0 0,0
21.11.2020 03:00:00 -2,3 -3,9 -3,8 7,7 11,9 7 4 15 8 SW 20 0 0,0
21.11.2020 02:00:00 -1,8 -3,1 -3,4 7,7 11,9 10 5 18 10 WSW 20 0 0,0
21.11.2020 01:00:00 -1,6 -3,6 -3,3 7,8 11,9 7 4 18 10 WSW 20 0 0,0
21.11.2020 00:00:00 -0,9 -3,9 -2,9 7,8 11,9 14 7 23 12 N 20 0 0,0
20.11.2020 23:00:00 0,0 -3,0 -1,6 7,9 11,9 10 5 22 12 NW 20 0 0,0
20.11.2020 22:00:00 0,5 -2,6 -1,3 7,9 11,9 6 3 16 8 N 20 0 0,0
20.11.2020 21:00:00 1,3 -2,8 -0,8 7,9 11,9 9 5 24 13 NW 20 0 0,0
20.11.2020 20:00:00 1,3 -1,8 -0,3 7,9 11,9 10 5 16 9 NNW 20 0 0,0
20.11.2020 19:00:00 1,9 -2,1 -0,3 8,0 11,9 7 4 18 10 NW 20 0 0,0
20.11.2020 18:00:00 1,4 -2,6 -0,8 7,9 11,9 10 5 19 10 NNW 20 0 0,0
20.11.2020 17:00:00 2,7 -2,4 1,2 7,9 11,9 16 9 41 22 N 20 18 0,0
20.11.2020 16:00:00 4,1 -1,7 5,2 7,9 11,9 25 14 44 24 N 20 27 0,0
20.11.2020 15:00:00 4,7 -0,3 5,6 7,9 11,9 23 12 42 23 N 20 22 0,0
20.11.2020 14:00:00 4,4 -0,8 5,9 7,9 11,9 27 15 48 26 N 20 0 0,0
20.11.2020 13:00:00 4,5 0,8 5,8 7,9 11,9 28 15 40 21 N 20 2 0,0
20.11.2020 12:00:00 4,0 1,4 5,6 7,9 11,9 24 13 39 21 N 20 0 0,0
20.11.2020 11:00:00 4,1 1,0 4,4 8,0 12,0 27 14 38 20 N 20 0 0,0
20.11.2020 10:00:00 3,1 0,3 1,7 8,0 12,0 22 12 37 20 N 20 0 0,0
20.11.2020 09:00:00 2,2 0,3 1,7 8,0 11,9 19 10 32 17 NNW 20 13 0,0
20.11.2020 08:00:00 2,2 0,6 1,8 8,1 12,0 21 12 36 19 NNW 20 0 0,0
20.11.2020 07:00:00 2,6 0,5 2,2 8,1 12,0 16 8 31 17 NNW 20 0 0,0
20.11.2020 06:00:00 2,4 0,3 1,2 8,2 12,0 16 9 29 16 NNW 20 0 0,0
20.11.2020 05:00:00 2,5 0,9 1,8 8,3 12,0 15 8 32 17 N 20 0 0,0
20.11.2020 04:00:00 2,9 0,5 2,5 8,3 12,0 18 10 44 24 N 19 0 0,0
20.11.2020 03:00:00 3,5 0,0 2,9 8,4 12,0 24 13 38 21 NNW 20 0 0,0
20.11.2020 02:00:00 3,3 0,3 2,9 8,4 12,0 15 8 36 20 NNW 20 0 0,0
20.11.2020 01:00:00 3,6 0,1 2,4 8,5 12,0 22 12 46 25 NNW 20 0 0,0
20.11.2020 00:00:00 3,3 -0,2 -0,2 8,5 12,0 21 11 32 18 NW 20 0 0,0
19.11.2020 23:00:00 3,4 -0,8 2,3 8,5 12,0 18 10 38 21 NW 20 0 0,0

tt = Température de l'air
td = dewpoint
tt 5cm = Température de l'air 5cm
tt -20cm = Température de l'air -20cm
tt -100cm = Température de l'air -100cm
ff = Vitesse du vent
fx = gusts
dd = Direction du vent
vv = visibility
sd = Ensoleillement
rr = Quantités de précipitations

stations d'obs. à proximité